Time;durP1;ratioP1;P1;durP2;ratioP2;P2;SDS_P1;SDS_P2;PMS_P1;PMS_P2;Temp;Humidity;BMP_temperature;BMP_pressure;BME280_temperature;BME280_humidity;BME280_pressure;Samples;Min_cycle;Max_cycle;Signal;HPM_P1;HPM_P2
2022/03/20 00:00:26;;;;;;;12.15;4.85;;;4.10;99.90;;;;;;5116866;28;20039;-71
2022/03/20 00:02:53;;;;;;;11.40;5.30;;;4.00;99.90;;;;;;5116512;28;20039;-71
2022/03/20 00:05:19;;;;;;;10.35;5.53;;;4.00;99.90;;;;;;5116765;28;20054;-71
2022/03/20 00:07:46;;;;;;;11.90;5.20;;;3.90;99.90;;;;;;5098307;28;20430;-71
2022/03/20 00:10:14;;;;;;;12.65;6.10;;;3.90;99.90;;;;;;5098509;28;20093;-70
2022/03/20 00:12:40;;;;;;;11.70;5.20;;;3.90;99.90;;;;;;5098031;28;20100;-70
2022/03/20 00:15:07;;;;;;;13.85;5.50;;;4.60;99.90;;;;;;5098283;28;20054;-71
2022/03/20 00:17:33;;;;;;;10.63;5.82;;;3.90;99.90;;;;;;5116322;28;20049;-71
2022/03/20 00:19:59;;;;;;;14.15;5.63;;;3.90;99.90;;;;;;5097947;28;20040;-71
2022/03/20 00:22:26;;;;;;;10.77;4.88;;;5.00;99.90;;;;;;5116363;28;20108;-72
2022/03/20 00:24:52;;;;;;;11.75;5.65;;;3.90;99.90;;;;;;5116281;28;20420;-71
2022/03/20 00:27:19;;;;;;;15.15;5.85;;;3.90;99.90;;;;;;5115816;28;20050;-71
2022/03/20 00:29:44;;;;;;;13.48;5.78;;;3.90;99.90;;;;;;5116243;28;20047;-71
2022/03/20 00:32:12;;;;;;;12.75;5.28;;;3.90;99.90;;;;;;5116144;28;20032;-70
2022/03/20 00:34:38;;;;;;;9.95;4.82;;;3.80;99.90;;;;;;5116452;28;20181;-71
2022/03/20 00:37:08;;;;;;;13.82;5.60;;;3.80;99.90;;;;;;5115834;28;20099;-70
2022/03/20 00:39:34;;;;;;;11.88;5.55;;;3.70;99.90;;;;;;5116041;28;20059;-71
2022/03/20 00:42:00;;;;;;;10.63;4.97;;;4.20;99.90;;;;;;5097461;28;20483;-70
2022/03/20 00:44:26;;;;;;;11.43;5.47;;;3.80;99.90;;;;;;5115484;28;20483;-71
2022/03/20 00:46:52;;;;;;;11.05;4.93;;;3.70;99.90;;;;;;5115798;28;20054;-70
2022/03/20 00:49:17;;;;;;;14.32;5.72;;;3.70;99.90;;;;;;5115997;28;20039;-71
2022/03/20 00:51:43;;;;;;;12.43;5.22;;;3.70;99.90;;;;;;5115965;28;20442;-71
2022/03/20 00:54:10;;;;;;;11.02;4.60;;;3.70;99.90;;;;;;5115790;28;20085;-72
2022/03/20 00:56:37;;;;;;;15.35;5.15;;;3.60;99.90;;;;;;5080934;28;20061;-72
2022/03/20 00:59:03;;;;;;;14.20;5.90;;;3.60;99.90;;;;;;5097395;28;20118;-72
2022/03/20 01:01:29;;;;;;;13.27;5.60;;;3.60;99.90;;;;;;5115663;28;20407;-72
2022/03/20 01:03:56;;;;;;;13.07;5.60;;;3.50;99.90;;;;;;5096617;28;20383;-72
2022/03/20 01:06:22;;;;;;;13.00;5.03;;;3.70;99.90;;;;;;5115373;28;20040;-70
2022/03/20 01:08:52;;;;;;;16.13;6.18;;;3.40;99.90;;;;;;5115636;28;20123;-72
2022/03/20 01:11:19;;;;;;;13.88;5.65;;;3.50;99.90;;;;;;5115608;28;20050;-72
2022/03/20 01:13:45;;;;;;;12.73;5.43;;;3.40;99.90;;;;;;5097321;28;20043;-71
2022/03/20 01:16:10;;;;;;;12.05;5.15;;;3.40;99.90;;;;;;5115029;28;20040;-71
2022/03/20 01:18:36;;;;;;;11.23;4.90;;;3.40;99.90;;;;;;5096927;28;20093;-71
2022/03/20 01:21:02;;;;;;;13.65;5.32;;;3.40;99.90;;;;;;5096597;28;20043;-70
2022/03/20 01:23:29;;;;;;;18.17;6.28;;;3.40;99.90;;;;;;5115383;28;20063;-71
2022/03/20 01:25:55;;;;;;;13.60;5.65;;;3.40;99.90;;;;;;5115037;28;20529;-71
2022/03/20 01:28:23;;;;;;;13.65;5.65;;;3.40;99.90;;;;;;5096814;28;20051;-70
2022/03/20 01:30:49;;;;;;;13.48;5.40;;;3.40;99.90;;;;;;5114753;28;20123;-71
2022/03/20 01:33:15;;;;;;;14.80;5.75;;;3.30;99.90;;;;;;5096230;28;20050;-72
2022/03/20 01:35:42;;;;;;;16.58;6.38;;;3.30;99.90;;;;;;5115043;28;20380;-69
2022/03/20 01:38:08;;;;;;;14.18;6.00;;;3.30;99.90;;;;;;5114906;28;20059;-71
2022/03/20 01:40:34;;;;;;;13.90;5.63;;;4.50;99.90;;;;;;5114933;28;20055;-70
2022/03/20 01:43:01;;;;;;;13.32;6.45;;;3.30;99.90;;;;;;5114881;28;20120;-71
2022/03/20 01:45:27;;;;;;;15.13;6.30;;;3.20;99.90;;;;;;5114532;28;20039;-71
2022/03/20 01:47:53;;;;;;;15.32;5.68;;;3.20;99.90;;;;;;5114425;28;20046;-72
2022/03/20 01:50:24;;;;;;;14.43;6.13;;;3.20;99.90;;;;;;5096453;28;20502;-72
2022/03/20 01:52:51;;;;;;;12.63;5.65;;;3.10;99.90;;;;;;5114789;28;20403;-70
2022/03/20 01:55:20;;;;;;;13.27;6.72;;;3.10;99.90;;;;;;5114622;28;20422;-71
2022/03/20 01:57:46;;;;;;;14.52;6.18;;;3.10;99.90;;;;;;5114597;28;20122;-71
2022/03/20 02:00:14;;;;;;;15.68;6.18;;;3.00;99.90;;;;;;5114606;28;20467;-71
2022/03/20 02:02:40;;;;;;;15.57;5.15;;;3.00;99.90;;;;;;5095937;28;20075;-71
2022/03/20 02:05:09;;;;;;;15.52;6.28;;;3.00;99.90;;;;;;5096148;28;20093;-72
2022/03/20 02:07:35;;;;;;;16.35;6.53;;;2.90;99.90;;;;;;5114488;28;20047;-71
2022/03/20 02:10:03;;;;;;;15.73;6.70;;;3.40;99.90;;;;;;5114536;28;20040;-70
2022/03/20 02:12:29;;;;;;;14.10;6.50;;;2.90;99.90;;;;;;5095953;28;20043;-71
2022/03/20 02:14:58;;;;;;;15.23;6.28;;;3.30;99.90;;;;;;5114210;28;20043;-71
2022/03/20 02:17:24;;;;;;;13.98;5.78;;;2.80;99.90;;;;;;5113903;28;20040;-72
2022/03/20 02:19:49;;;;;;;15.13;6.70;;;2.80;99.90;;;;;;5114300;28;20176;-71
2022/03/20 02:22:15;;;;;;;20.70;7.00;;;2.80;99.90;;;;;;5114266;28;20128;-72
2022/03/20 02:24:46;;;;;;;14.45;6.72;;;2.80;99.90;;;;;;5114201;28;20046;-71
2022/03/20 02:27:25;;;;;;;15.45;6.82;;;2.70;99.90;;;;;;5114127;28;20043;-72
2022/03/20 02:29:59;;;;;;;17.80;7.05;;;2.70;99.90;;;;;;5113754;28;20050;-71
2022/03/20 02:32:27;;;;;;;15.55;6.75;;;2.70;99.90;;;;;;5095941;28;20078;-71
2022/03/20 02:34:55;;;;;;;16.60;7.95;;;2.60;99.90;;;;;;5113689;28;20110;-71
2022/03/20 02:37:22;;;;;;;14.73;7.03;;;3.40;99.90;;;;;;5095547;28;20124;-70
2022/03/20 02:39:48;;;;;;;19.38;8.02;;;2.60;99.90;;;;;;5095336;28;20444;-72
2022/03/20 02:42:15;;;;;;;16.65;6.35;;;2.70;99.90;;;;;;5113810;28;20071;-70
2022/03/20 02:45:05;;;;;;;16.05;6.20;;;2.60;99.90;;;;;;5113543;28;20031;-70
2022/03/20 02:47:37;;;;;;;17.17;6.70;;;2.50;99.90;;;;;;5113564;28;20032;-71
2022/03/20 02:50:17;;;;;;;18.13;7.95;;;2.50;99.90;;;;;;5113262;28;20070;-71
2022/03/20 02:52:58;;;;;;;17.73;7.47;;;2.50;99.90;;;;;;5113726;28;20504;-70
2022/03/20 02:55:28;;;;;;;18.17;8.07;;;2.50;99.90;;;;;;5113681;28;20043;-72
2022/03/20 02:57:56;;;;;;;18.17;8.15;;;2.50;99.90;;;;;;5113358;28;20047;-71
2022/03/20 03:00:28;;;;;;;17.25;8.32;;;2.50;99.90;;;;;;5113586;28;20051;-71
2022/03/20 03:02:57;;;;;;;16.10;7.68;;;2.50;99.90;;;;;;5113347;28;20036;-72
2022/03/20 03:05:25;;;;;;;14.20;6.68;;;2.40;99.90;;;;;;5094671;28;20054;-70
2022/03/20 03:10:56;;;;;;;17.83;8.68;;;3.40;99.90;;;;;;5113316;28;20392;-71
2022/03/20 03:13:23;;;;;;;15.85;8.15;;;2.40;99.90;;;;;;5094939;28;20047;-72
2022/03/20 03:15:55;;;;;;;17.35;8.63;;;2.40;99.90;;;;;;5094699;28;20048;-72
2022/03/20 03:18:22;;;;;;;14.90;7.60;;;2.40;99.90;;;;;;5095209;28;20055;-71
2022/03/20 03:20:48;;;;;;;18.38;8.32;;;2.30;99.90;;;;;;5112828;28;20399;-71
2022/03/20 03:23:14;;;;;;;18.90;9.48;;;2.30;99.90;;;;;;5113310;28;20074;-71
2022/03/20 03:25:40;;;;;;;18.17;8.88;;;2.30;99.90;;;;;;5113097;28;20043;-70
2022/03/20 03:28:07;;;;;;;20.58;9.50;;;2.40;99.90;;;;;;5112405;28;20047;-70
2022/03/20 03:30:35;;;;;;;20.40;10.63;;;2.40;99.90;;;;;;5113007;28;20126;-70
2022/03/20 03:33:00;;;;;;;20.60;10.93;;;2.30;99.90;;;;;;5094562;28;20046;-71
2022/03/20 03:35:41;;;;;;;19.17;10.30;;;2.40;99.90;;;;;;5113074;28;20402;-71
2022/03/20 03:38:15;;;;;;;22.33;10.60;;;2.40;99.90;;;;;;5077013;28;20044;-72
2022/03/20 03:40:43;;;;;;;23.08;10.18;;;2.40;99.90;;;;;;5113021;28;20043;-72
2022/03/20 03:43:09;;;;;;;19.90;10.45;;;2.40;99.90;;;;;;5094548;28;20540;-71
2022/03/20 03:45:35;;;;;;;17.67;9.68;;;2.30;99.90;;;;;;5112738;28;20086;-72
2022/03/20 03:48:01;;;;;;;19.80;9.45;;;2.30;99.90;;;;;;5094922;28;20143;-71
2022/03/20 03:50:28;;;;;;;22.05;9.25;;;2.30;99.90;;;;;;5077423;28;20070;-71
2022/03/20 03:52:53;;;;;;;20.02;9.93;;;2.30;99.90;;;;;;5112634;28;20166;-71
2022/03/20 03:55:19;;;;;;;21.27;9.68;;;2.30;99.90;;;;;;5112779;28;20075;-70
2022/03/20 03:57:52;;;;;;;23.73;11.45;;;2.30;99.90;;;;;;5112940;28;20040;-70
2022/03/20 04:00:20;;;;;;;19.83;9.50;;;2.30;99.90;;;;;;5112885;28;20044;-71
2022/03/20 04:02:47;;;;;;;19.50;10.40;;;2.20;99.90;;;;;;5112978;28;20035;-69
2022/03/20 04:05:17;;;;;;;20.05;10.68;;;2.20;99.90;;;;;;5112973;28;20048;-70
2022/03/20 04:07:44;;;;;;;23.58;11.52;;;2.20;99.90;;;;;;5112505;28;20059;-70
2022/03/20 04:10:10;;;;;;;20.63;10.40;;;2.10;99.90;;;;;;5112497;28;20046;-71
2022/03/20 04:12:37;;;;;;;22.98;10.63;;;2.20;99.90;;;;;;5112593;28;20122;-71
2022/03/20 04:15:06;;;;;;;19.13;10.18;;;2.10;99.90;;;;;;5112838;28;20051;-71
2022/03/20 04:17:32;;;;;;;25.00;10.57;;;2.10;99.90;;;;;;5094400;28;20047;-71
2022/03/20 04:19:58;;;;;;;20.38;10.27;;;2.10;99.90;;;;;;5112664;28;20205;-70
2022/03/20 04:22:28;;;;;;;24.52;12.68;;;2.10;99.90;;;;;;5112630;28;20118;-70
2022/03/20 04:24:55;;;;;;;21.67;10.32;;;2.00;99.90;;;;;;5112348;28;20083;-71
2022/03/20 04:27:21;;;;;;;22.80;11.93;;;2.00;99.90;;;;;;5112314;28;20035;-71
2022/03/20 04:29:48;;;;;;;21.98;10.90;;;2.00;99.90;;;;;;5112376;28;20044;-72
2022/03/20 04:32:14;;;;;;;22.30;11.18;;;2.00;99.90;;;;;;5094404;28;20347;-71
2022/03/20 04:34:40;;;;;;;22.85;11.52;;;2.00;99.90;;;;;;5112622;28;20127;-70
2022/03/20 04:37:07;;;;;;;23.17;11.88;;;2.00;99.90;;;;;;5112258;28;20055;-71
2022/03/20 04:39:37;;;;;;;26.70;12.68;;;3.20;99.90;;;;;;5112417;28;20455;-72
2022/03/20 04:42:05;;;;;;;23.17;11.88;;;2.00;99.90;;;;;;5116015;28;20032;-71
2022/03/20 04:44:31;;;;;;;23.13;12.82;;;2.10;99.90;;;;;;5116175;28;20126;-71
2022/03/20 04:46:57;;;;;;;24.75;12.00;;;2.00;99.90;;;;;;5097734;28;20181;-71
2022/03/20 05:00:21;;;;;;;27.98;13.48;;;2.00;99.90;;;;;;5115510;28;20568;-71
2022/03/20 05:02:50;;;;;;;24.95;13.63;;;2.00;99.90;;;;;;5097185;28;20035;-71
2022/03/20 05:05:16;;;;;;;22.52;12.38;;;2.00;99.90;;;;;;5115564;28;20505;-72
2022/03/20 05:07:42;;;;;;;26.30;13.80;;;1.90;99.90;;;;;;5115831;28;20036;-71
2022/03/20 05:15:39;;;;;;;22.67;8.75;;;1.80;99.90;;;;;;5115379;28;20104;-69
2022/03/20 05:18:07;;;;;;;23.65;9.02;;;1.80;99.90;;;;;;5115183;28;20444;-72
2022/03/20 05:20:33;;;;;;;25.08;9.65;;;2.40;99.90;;;;;;5115303;28;20040;-70
2022/03/20 05:22:59;;;;;;;23.17;8.00;;;1.80;99.90;;;;;;5115373;28;20399;-70
2022/03/20 05:25:28;;;;;;;19.67;8.75;;;1.80;99.90;;;;;;5115091;28;20059;-71
2022/03/20 05:27:55;;;;;;;18.13;7.93;;;1.70;99.90;;;;;;5096667;28;20043;-70
2022/03/20 05:30:20;;;;;;;21.92;8.88;;;1.80;99.90;;;;;;5115155;28;20040;-71
2022/03/20 05:32:48;;;;;;;22.65;8.77;;;1.80;99.90;;;;;;5096851;28;20506;-73
2022/03/20 05:35:15;;;;;;;25.20;8.75;;;1.80;99.90;;;;;;5115100;28;20032;-70
2022/03/20 05:37:42;;;;;;;26.25;9.48;;;1.70;99.90;;;;;;5114956;28;20054;-75
2022/03/20 05:40:08;;;;;;;17.77;8.43;;;1.70;99.90;;;;;;5114840;28;20094;-74
2022/03/20 05:42:34;;;;;;;21.08;9.05;;;1.70;99.90;;;;;;5114571;28;20069;-75
2022/03/20 05:45:02;;;;;;;21.35;9.00;;;1.70;99.90;;;;;;5096474;28;20047;-74
2022/03/20 05:47:32;;;;;;;22.40;9.13;;;1.90;99.90;;;;;;5096270;28;20044;-75
2022/03/20 05:50:02;;;;;;;20.67;10.02;;;1.70;99.90;;;;;;5095925;28;20039;-75
2022/03/20 05:52:31;;;;;;;20.73;8.80;;;1.70;99.90;;;;;;5114702;28;20168;-74
2022/03/20 05:55:06;;;;;;;24.02;9.15;;;1.70;99.90;;;;;;5116163;28;20054;-75
2022/03/20 06:00:25;;;;;;;;;;;1.70;99.90;;;;;;5116241;28;20051;-71
2022/03/20 06:02:51;;;;;;;25.55;11.20;;;1.70;99.90;;;;;;5115844;28;19999;-74
2022/03/20 06:05:17;;;;;;;24.92;10.98;;;2.70;99.90;;;;;;5114631;28;20181;-73
2022/03/20 06:07:45;;;;;;;22.63;10.02;;;1.70;99.90;;;;;;5114630;28;20118;-76
2022/03/20 06:10:16;;;;;;;26.00;10.80;;;1.70;99.90;;;;;;5096405;28;20136;-74
2022/03/20 06:12:42;;;;;;;28.73;12.40;;;1.80;99.90;;;;;;5114141;28;20040;-75
2022/03/20 06:15:08;;;;;;;24.00;11.02;;;1.80;99.90;;;;;;5096000;28;20058;-74
2022/03/20 06:17:41;;;;;;;23.75;12.15;;;1.90;99.90;;;;;;5114022;28;20058;-72
2022/03/20 06:20:08;;;;;;;25.27;11.50;;;1.90;99.90;;;;;;5114104;28;20040;-69
2022/03/20 06:22:34;;;;;;;21.25;11.18;;;1.90;99.90;;;;;;5113965;28;20512;-71
2022/03/20 06:25:08;;;;;;;25.20;11.80;;;1.90;99.90;;;;;;5113794;28;20055;-72
2022/03/20 06:28:02;;;;;;;22.98;11.40;;;2.00;99.90;;;;;;5096086;28;20047;-71
2022/03/20 06:30:31;;;;;;;23.30;10.68;;;2.00;99.90;;;;;;5091455;28;20048;-71
2022/03/20 06:32:57;;;;;;;21.20;10.95;;;2.00;99.90;;;;;;5113800;28;20122;-72
2022/03/20 06:35:23;;;;;;;22.83;10.82;;;2.00;99.90;;;;;;5113733;28;20123;-70
2022/03/20 06:37:55;;;;;;;20.73;11.23;;;2.10;99.90;;;;;;5095450;28;20051;-72
2022/03/20 06:40:21;;;;;;;;;;;2.10;99.90;;;;;;5114332;28;20419;-71
2022/03/20 06:42:47;;;;;;;27.70;11.38;;;2.50;99.90;;;;;;5113966;28;19923;-71
2022/03/20 06:45:14;;;;;;;25.20;11.68;;;2.20;99.90;;;;;;5094971;28;20040;-71
2022/03/20 06:47:42;;;;;;;24.05;11.20;;;3.00;99.90;;;;;;5113597;28;20081;-72
2022/03/20 06:50:10;;;;;;;24.77;11.65;;;2.30;99.90;;;;;;5095260;28;20479;-71
2022/03/20 06:52:38;;;;;;;20.67;10.48;;;2.30;99.90;;;;;;5113479;28;20039;-71
2022/03/20 06:55:05;;;;;;;26.02;12.25;;;2.30;99.90;;;;;;5094971;28;20054;-72
2022/03/20 06:57:30;;;;;;;25.67;11.07;;;2.30;99.90;;;;;;5095509;28;20390;-72
2022/03/20 06:59:59;;;;;;;22.95;11.85;;;2.40;99.90;;;;;;5095004;28;20043;-71
2022/03/20 07:02:25;;;;;;;20.30;10.98;;;2.50;99.90;;;;;;5112576;28;20122;-71
2022/03/20 07:04:51;;;;;;;23.88;12.15;;;2.50;99.90;;;;;;5113206;28;20122;-72
2022/03/20 07:07:17;;;;;;;26.27;11.48;;;2.50;99.90;;;;;;5113326;28;20046;-71
2022/03/20 07:09:43;;;;;;;25.13;11.18;;;2.60;99.90;;;;;;5113467;28;20388;-72
2022/03/20 07:12:13;;;;;;;22.80;10.43;;;2.70;99.90;;;;;;5094698;28;20051;-70
2022/03/20 07:14:39;;;;;;;25.33;11.23;;;2.70;99.90;;;;;;5113482;28;20435;-72
2022/03/20 07:17:08;;;;;;;24.60;10.40;;;2.80;99.90;;;;;;5113083;28;20503;-71
2022/03/20 07:19:35;;;;;;;22.17;10.93;;;2.80;99.90;;;;;;5094833;28;20052;-70
2022/03/20 07:22:01;;;;;;;23.40;11.85;;;2.90;99.90;;;;;;5112934;28;20054;-72
2022/03/20 07:24:27;;;;;;;26.75;11.77;;;3.00;99.90;;;;;;5113264;28;20422;-73
2022/03/20 07:29:38;;;;;;;27.67;11.73;;;3.10;99.90;;;;;;5093952;28;20048;-71
2022/03/20 07:32:06;;;;;;;23.00;11.30;;;3.30;99.90;;;;;;5094600;28;20181;-71
2022/03/20 07:34:37;;;;;;;24.20;11.82;;;3.30;99.90;;;;;;5094758;28;20052;-71
2022/03/20 07:37:05;;;;;;;21.55;10.50;;;3.40;99.90;;;;;;5113142;28;20052;-70
2022/03/20 07:39:32;;;;;;;23.63;11.82;;;3.50;99.90;;;;;;5094790;28;20050;-72
2022/03/20 07:41:58;;;;;;;23.85;11.90;;;3.60;99.90;;;;;;5094569;28;20082;-72
2022/03/20 07:44:26;;;;;;;25.05;11.93;;;3.70;99.90;;;;;;5112818;28;20558;-72
2022/03/20 07:46:55;;;;;;;25.55;11.18;;;3.80;99.90;;;;;;5094919;28;20398;-71
2022/03/20 07:49:21;;;;;;;24.17;9.90;;;3.80;99.90;;;;;;5094621;28;20044;-72
2022/03/20 07:51:47;;;;;;;20.50;10.20;;;3.80;99.90;;;;;;5094718;28;20048;-71
2022/03/20 07:54:13;;;;;;;23.10;10.00;;;3.90;99.90;;;;;;5094553;28;20380;-72
2022/03/20 07:56:39;;;;;;;20.40;8.93;;;3.90;99.90;;;;;;5095052;28;20067;-71
2022/03/20 07:59:09;;;;;;;23.55;9.38;;;3.90;99.90;;;;;;5112876;28;20517;-71
2022/03/20 08:01:36;;;;;;;26.15;10.10;;;4.00;99.90;;;;;;5112590;28;20043;-70
2022/03/20 08:04:03;;;;;;;24.10;9.00;;;4.00;99.90;;;;;;5094216;28;20048;-71
2022/03/20 08:06:29;;;;;;;24.65;10.38;;;4.70;99.90;;;;;;5094737;28;20407;-72
2022/03/20 08:08:59;;;;;;;20.45;9.35;;;4.10;99.90;;;;;;5112629;28;20073;-70
2022/03/20 08:11:29;;;;;;;20.08;8.93;;;4.10;99.90;;;;;;5112646;28;20051;-71
2022/03/20 08:13:55;;;;;;;20.23;9.25;;;4.20;99.90;;;;;;5079094;28;20046;-70
2022/03/20 08:16:25;;;;;;;21.98;8.82;;;4.30;99.90;;;;;;5116413;28;20491;-72
2022/03/20 08:18:52;;;;;;;21.25;10.23;;;4.40;99.90;;;;;;5098143;28;20433;-72
2022/03/20 08:21:17;;;;;;;25.08;9.02;;;4.40;99.90;;;;;;5098327;28;20050;-71
2022/03/20 08:23:43;;;;;;;20.67;8.77;;;4.50;99.90;;;;;;5116354;28;20130;-71
2022/03/20 08:26:11;;;;;;;23.13;10.07;;;4.60;99.90;;;;;;5116401;28;20122;-72
2022/03/20 08:28:45;;;;;;;26.52;9.40;;;4.80;99.90;;;;;;5098474;28;20039;-71
2022/03/20 08:31:12;;;;;;;23.00;9.70;;;4.70;99.90;;;;;;5080978;28;20048;-71
2022/03/20 08:33:40;;;;;;;22.60;9.55;;;4.80;99.90;;;;;;5098104;28;20086;-72
2022/03/20 08:36:07;;;;;;;20.92;9.73;;;4.90;99.90;;;;;;5115855;28;20135;-72
2022/03/20 08:38:33;;;;;;;21.52;10.27;;;5.00;99.90;;;;;;5116076;28;20080;-70
2022/03/20 08:40:59;;;;;;;26.33;9.25;;;5.10;99.90;;;;;;5097835;28;20118;-72
2022/03/20 08:43:25;;;;;;;31.50;10.50;;;5.10;99.90;;;;;;5115975;28;20039;-71
2022/03/20 08:45:51;;;;;;;32.28;9.88;;;5.10;99.90;;;;;;5097648;28;20047;-72
2022/03/20 08:48:18;;;;;;;21.65;9.63;;;5.20;99.90;;;;;;5097747;28;20044;-73
2022/03/20 08:50:48;;;;;;;21.13;9.18;;;5.20;99.90;;;;;;5097035;28;20466;-71
2022/03/20 08:53:18;;;;;;;21.17;9.82;;;5.30;99.90;;;;;;5097889;28;20126;-70
2022/03/20 08:55:47;;;;;;;24.63;10.75;;;5.40;99.90;;;;;;5097532;28;20057;-71
2022/03/20 08:58:13;;;;;;;26.02;10.70;;;5.50;99.90;;;;;;5115694;28;20069;-72
2022/03/20 09:00:41;;;;;;;23.80;10.25;;;5.50;99.90;;;;;;5097257;28;20036;-75
2022/03/20 09:03:07;;;;;;;24.55;11.02;;;5.60;99.90;;;;;;5097261;28;20078;-73
2022/03/20 09:05:33;;;;;;;27.63;10.50;;;6.00;99.90;;;;;;5096996;28;20054;-75
2022/03/20 09:07:59;;;;;;;22.15;9.68;;;5.70;99.90;;;;;;5115393;28;20036;-76
2022/03/20 09:10:25;;;;;;;24.25;9.43;;;5.80;99.90;;;;;;5115462;28;20449;-75
2022/03/20 09:12:55;;;;;;;20.98;10.35;;;5.90;99.90;;;;;;5115530;28;20111;-75
2022/03/20 09:15:22;;;;;;;19.35;9.48;;;6.00;99.90;;;;;;5115290;28;20048;-73
2022/03/20 09:20:35;;;;;;;24.05;10.48;;;6.20;99.90;;;;;;5115417;28;20048;-76
2022/03/20 09:23:01;;;;;;;25.35;9.65;;;6.30;99.40;;;;;;5114981;28;20048;-71
2022/03/20 09:25:26;;;;;;;24.02;11.00;;;6.40;98.10;;;;;;5114238;28;20044;-72
2022/03/20 09:27:52;;;;;;;24.98;10.15;;;6.40;96.90;;;;;;5114912;28;20075;-76
2022/03/20 09:30:21;;;;;;;24.35;10.38;;;6.50;98.00;;;;;;5115195;28;20090;-73
2022/03/20 09:32:48;;;;;;;22.67;10.77;;;6.60;97.20;;;;;;5115235;28;20127;-74
2022/03/20 09:35:15;;;;;;;27.63;10.93;;;6.70;97.40;;;;;;5097027;28;20083;-71
2022/03/20 09:37:41;;;;;;;22.63;10.68;;;6.80;97.00;;;;;;5114504;28;20094;-72
2022/03/20 09:40:09;;;;;;;22.80;10.00;;;6.90;97.40;;;;;;5096318;28;20475;-73
2022/03/20 09:42:37;;;;;;;24.77;10.65;;;7.00;97.00;;;;;;5114742;28;20039;-72
2022/03/20 09:45:09;;;;;;;21.40;9.85;;;7.00;93.80;;;;;;5114706;28;20122;-75
2022/03/20 09:47:40;;;;;;;26.40;11.40;;;7.00;95.50;;;;;;5114828;28;20039;-74
2022/03/20 09:50:07;;;;;;;19.48;10.07;;;7.10;95.20;;;;;;5096216;28;20063;-76
2022/03/20 09:52:34;;;;;;;23.92;11.13;;;7.20;94.20;;;;;;5114683;28;20042;-75
2022/03/20 09:55:00;;;;;;;22.42;11.30;;;7.30;93.70;;;;;;5114041;28;20082;-72
2022/03/20 09:57:30;;;;;;;21.17;8.73;;;7.30;93.90;;;;;;5079038;28;20146;-72
2022/03/20 09:59:57;;;;;;;24.02;10.20;;;7.70;92.90;;;;;;5096231;28;20059;-73
2022/03/20 10:02:29;;;;;;;22.80;10.63;;;7.40;92.80;;;;;;5114404;28;20096;-76
2022/03/20 10:04:58;;;;;;;26.48;11.43;;;7.90;92.70;;;;;;5114337;28;20047;-76
2022/03/20 10:07:26;;;;;;;27.08;11.50;;;7.70;92.10;;;;;;5114419;28;20044;-75
2022/03/20 10:10:17;;;;;;;24.45;10.88;;;7.80;93.50;;;;;;5113888;28;20103;-72
2022/03/20 10:12:53;;;;;;;23.17;10.80;;;7.80;91.80;;;;;;5096187;28;20073;-75
2022/03/20 10:15:31;;;;;;;24.48;11.30;;;7.90;91.40;;;;;;5078613;28;20062;-76
2022/03/20 10:18:08;;;;;;;21.10;9.80;;;7.90;90.90;;;;;;5114032;28;20079;-72
2022/03/20 10:20:48;;;;;;;23.88;11.20;;;8.20;90.80;;;;;;5095994;28;20085;-76
2022/03/20 10:23:36;;;;;;;24.42;11.02;;;8.10;88.80;;;;;;5114122;28;20084;-77
2022/03/20 10:26:19;;;;;;;24.25;11.13;;;8.20;88.40;;;;;;5095533;28;20071;-71
2022/03/20 10:28:47;;;;;;;29.17;12.07;;;8.30;85.80;;;;;;5095502;28;20047;-72
2022/03/20 10:31:20;;;;;;;26.45;10.82;;;8.50;89.60;;;;;;5114163;28;20165;-71
2022/03/20 10:34:01;;;;;;;;;;;8.50;86.00;;;;;;5114547;28;20407;-72
2022/03/20 10:36:27;;;;;;;21.65;10.52;;;8.50;86.50;;;;;;5095729;28;19969;-72
2022/03/20 10:38:55;;;;;;;27.60;11.82;;;8.70;86.80;;;;;;5113596;28;20148;-71
2022/03/20 10:41:27;;;;;;;24.40;11.18;;;8.90;85.40;;;;;;5113278;28;20048;-75
2022/03/20 10:43:55;;;;;;;25.27;11.43;;;9.10;86.90;;;;;;5113512;28;20043;-72
2022/03/20 10:46:26;;;;;;;31.25;15.45;;;9.20;87.50;;;;;;5094584;28;20112;-74
2022/03/20 10:48:54;;;;;;;31.75;15.13;;;9.40;84.20;;;;;;5095744;28;20046;-77
2022/03/20 10:51:41;;;;;;;29.65;16.27;;;9.30;84.50;;;;;;5113539;28;20044;-77
2022/03/20 10:54:22;;;;;;;30.52;16.30;;;9.40;80.40;;;;;;5113545;28;20101;-76
2022/03/20 10:56:59;;;;;;;26.10;14.95;;;9.50;77.70;;;;;;5112945;28;20506;-75
2022/03/20 10:59:26;;;;;;;31.27;15.50;;;9.50;76.50;;;;;;5113555;28;20044;-76
2022/03/20 11:01:52;;;;;;;27.85;15.73;;;9.50;76.60;;;;;;5113436;28;20043;-73
2022/03/20 11:04:19;;;;;;;27.55;15.40;;;9.50;75.90;;;;;;5113214;28;20040;-74
2022/03/20 11:06:48;;;;;;;28.92;15.95;;;9.60;77.30;;;;;;5095133;28;20101;-76
2022/03/20 11:09:15;;;;;;;29.70;15.43;;;10.00;75.10;;;;;;5113469;28;20057;-74
2022/03/20 11:11:48;;;;;;;30.33;15.25;;;9.60;76.00;;;;;;5113053;28;20394;-76
2022/03/20 11:14:15;;;;;;;28.17;15.43;;;9.70;75.50;;;;;;5113097;28;20108;-74
2022/03/20 11:16:42;;;;;;;29.63;15.98;;;9.90;75.20;;;;;;5113046;28;20047;-76
2022/03/20 11:19:12;;;;;;;31.10;13.95;;;9.90;75.70;;;;;;5113060;28;20043;-76
2022/03/20 11:21:44;;;;;;;27.35;10.18;;;9.90;74.10;;;;;;5113986;28;20128;-73
2022/03/20 11:24:14;;;;;;;27.30;10.95;;;10.00;73.20;;;;;;5095195;28;20070;-76
2022/03/20 11:26:44;;;;;;;23.88;10.35;;;10.00;74.00;;;;;;5113074;28;20050;-74
2022/03/20 11:29:12;;;;;;;21.23;9.95;;;10.10;70.80;;;;;;5112563;28;20075;-73
2022/03/20 11:31:38;;;;;;;28.88;10.85;;;10.10;71.30;;;;;;5113013;28;20039;-77
2022/03/20 11:34:06;;;;;;;23.98;10.65;;;10.20;72.30;;;;;;5094219;28;20056;-75
2022/03/20 11:36:32;;;;;;;25.70;10.82;;;10.20;72.00;;;;;;5112959;28;20091;-75
2022/03/20 11:39:11;;;;;;;35.42;10.57;;;10.20;72.10;;;;;;5094539;28;20051;-76
2022/03/20 11:41:38;;;;;;;24.48;9.88;;;10.20;70.80;;;;;;5112933;28;20075;-76
2022/03/20 11:44:22;;;;;;;24.55;11.00;;;10.30;71.00;;;;;;5112495;28;20096;-75
2022/03/20 11:47:12;;;;;;;23.70;9.07;;;10.30;69.40;;;;;;5113111;28;20048;-75
2022/03/20 11:49:40;;;;;;;22.73;9.55;;;10.30;68.80;;;;;;5115512;28;20118;-76
2022/03/20 11:52:14;;;;;;;20.95;10.23;;;10.40;70.30;;;;;;5098887;28;20454;-76
2022/03/20 11:54:39;;;;;;;26.02;10.20;;;10.40;67.40;;;;;;5098734;28;20129;-75
2022/03/20 11:57:23;;;;;;;22.42;9.60;;;10.50;69.70;;;;;;5098860;28;20040;-74
2022/03/20 11:59:51;;;;;;;24.05;9.73;;;10.60;67.60;;;;;;5099201;28;20487;-73
2022/03/20 12:02:18;;;;;;;22.90;9.60;;;10.60;67.60;;;;;;5117705;28;20051;-72
2022/03/20 12:05:08;;;;;;;25.08;9.45;;;10.70;66.80;;;;;;5117259;28;20044;-73
2022/03/20 12:07:33;;;;;;;20.10;9.00;;;10.80;65.70;;;;;;5117628;28;20054;-71
2022/03/20 12:10:26;;;;;;;24.38;9.80;;;11.00;67.40;;;;;;5117722;28;20442;-71
2022/03/20 12:13:13;;;;;;;22.17;9.88;;;11.10;65.40;;;;;;5117833;28;20043;-75
2022/03/20 12:15:44;;;;;;;22.27;8.65;;;11.20;67.50;;;;;;5117470;28;20075;-71
2022/03/20 12:18:11;;;;;;;23.83;9.40;;;11.30;64.70;;;;;;5117668;28;20067;-76
2022/03/20 12:20:52;;;;;;;22.13;9.52;;;11.30;65.10;;;;;;5117854;28;20492;-71
2022/03/20 12:23:43;;;;;;;21.55;8.95;;;11.50;64.90;;;;;;5117427;28;20119;-71
2022/03/20 12:26:31;;;;;;;22.08;9.13;;;11.50;65.20;;;;;;5103812;28;20134;-71
2022/03/20 12:29:26;;;;;;;25.55;10.68;;;11.60;63.40;;;;;;5117411;28;20096;-73
2022/03/20 12:32:12;;;;;;;22.25;10.00;;;11.60;66.10;;;;;;5095369;28;20075;-70
2022/03/20 12:34:39;;;;;;;23.75;10.45;;;11.60;63.60;;;;;;5098638;28;20491;-72
2022/03/20 12:37:27;;;;;;;28.13;11.23;;;11.60;63.90;;;;;;5098858;28;20047;-72
2022/03/20 12:39:54;;;;;;;24.85;9.93;;;11.50;64.70;;;;;;5098438;28;20136;-71
2022/03/20 12:42:22;;;;;;;20.60;9.85;;;11.30;63.60;;;;;;5098126;28;20043;-71
2022/03/20 12:44:50;;;;;;;21.55;10.27;;;11.20;65.20;;;;;;5115781;28;20558;-73
2022/03/20 12:47:20;;;;;;;23.08;9.95;;;11.20;66.60;;;;;;5097750;28;20425;-71
2022/03/20 12:49:47;;;;;;;26.27;10.65;;;11.10;65.30;;;;;;5116034;28;20050;-71
2022/03/20 12:52:16;;;;;;;20.02;8.23;;;11.10;66.20;;;;;;5098032;28;20099;-71
2022/03/20 12:55:01;;;;;;;19.73;9.73;;;11.00;63.80;;;;;;5116060;28;20073;-71
2022/03/20 12:57:56;;;;;;;20.77;9.90;;;11.00;66.30;;;;;;5115731;28;20059;-71
2022/03/20 13:00:25;;;;;;;21.00;9.25;;;11.20;65.30;;;;;;5012117;28;20104;-72
2022/03/20 13:03:04;;;;;;;24.85;9.63;;;11.20;64.30;;;;;;5012774;28;20610;-72
2022/03/20 13:05:34;;;;;;;21.90;8.68;;;11.30;63.00;;;;;;5013013;28;20065;-73
2022/03/20 13:07:59;;;;;;;23.45;9.40;;;11.50;64.50;;;;;;5013009;28;20461;-71
2022/03/20 13:10:31;;;;;;;19.20;8.85;;;11.60;63.10;;;;;;5012852;28;20058;-73
2022/03/20 13:13:01;;;;;;;23.55;9.27;;;11.90;65.10;;;;;;4980461;28;20053;-71
2022/03/20 13:15:33;;;;;;;25.77;9.88;;;12.00;63.10;;;;;;5012933;28;20065;-72
2022/03/20 13:18:01;;;;;;;18.30;8.30;;;12.10;61.60;;;;;;5012406;28;20050;-70